This is the latest recevied weather packets stored in our database for station/object SV6DBG-10. If no packets are shown the sender has not sent any weather packets the latest 10 day(s).
| Time | Temp. | Humidity | Pressure | Rain* | Wind** | Luminosity | Snow |
|---|---|---|---|---|---|---|---|
| 1777489605 | 16.11° C | 45% | 1020.1 hPa | - | - | - | - |
| 1777488707 | 16.11° C | 48% | 1020 hPa | - | - | - | - |
| 1777487804 | 16.67° C | 44% | 1019.9 hPa | - | - | - | - |
| 1777486904 | 16.67° C | 44% | 1019.9 hPa | - | - | - | - |
| 1777486004 | 17.22° C | 42% | 1019.6 hPa | - | - | - | - |
| 1777485104 | 17.78° C | 41% | 1019.6 hPa | - | - | - | - |
| 1777484204 | 18.33° C | 41% | 1019.5 hPa | - | - | - | - |
| 1777483304 | 18.89° C | 41% | 1019.4 hPa | - | - | - | - |
| 1777482404 | 20° C | 40% | 1019.1 hPa | - | - | - | - |
| 1777481503 | 21.67° C | 37% | 1019 hPa | - | - | - | - |
| 1777480603 | 22.78° C | 34% | 1018.8 hPa | - | - | - | - |
| 1777479703 | 22.78° C | 33% | 1018.7 hPa | - | - | - | - |
| 1777478803 | 23.89° C | 30% | 1018.6 hPa | - | - | - | - |
| 1777477903 | 24.44° C | 26% | 1018.5 hPa | - | - | - | - |
| 1777477002 | 25° C | 24% | 1018.5 hPa | - | - | - | - |
| 1777476102 | 25.56° C | 23% | 1018.4 hPa | - | - | - | - |
| 1777475202 | 26.11° C | 21% | 1018.5 hPa | - | - | - | - |
| 1777474301 | 26.11° C | 21% | 1018.5 hPa | - | - | - | - |
| 1777473401 | 26.11° C | 20% | 1018.5 hPa | - | - | - | - |
| 1777472501 | 26.67° C | 21% | 1018.5 hPa | - | - | - | - |
| 1777471601 | 26.67° C | 22% | 1018.6 hPa | - | - | - | - |
| 1777470701 | 26.67° C | 22% | 1018.7 hPa | - | - | - | - |
| 1777469801 | 26.11° C | 23% | 1018.7 hPa | - | - | - | - |
| 1777468900 | 26.67° C | 23% | 1018.7 hPa | - | - | - | - |
| 1777468000 | 27.22° C | 21% | 1018.9 hPa | - | - | - | - |
* Rain since midnight (hover to see other rain measurements)
** Current wind speed in m/s (hover to see current wind gust speed)